Time;durP1;ratioP1;P1;durP2;ratioP2;P2;SDS_P1;SDS_P2;PMS_P1;PMS_P2;Temp;Humidity;BMP_temperature;BMP_pressure;BME280_temperature;BME280_humidity;BME280_pressure;Samples;Min_cycle;Max_cycle;Signal;HPM_P1;HPM_P2
2024/01/15 00:02:06;;;;;;;8.15;2.58;;;1.70;99.90;;;;;;4985391;28;20709;-36
2024/01/15 00:04:37;;;;;;;7.55;2.47;;;1.70;99.90;;;;;;4982030;28;20077;-36
2024/01/15 00:07:03;;;;;;;12.38;3.80;;;1.70;99.90;;;;;;4985059;28;20049;-36
2024/01/15 00:09:28;;;;;;;6.97;2.80;;;1.70;99.90;;;;;;4984283;28;20438;-36
2024/01/15 00:11:54;;;;;;;11.13;2.97;;;1.70;99.90;;;;;;4986189;28;20054;-37
2024/01/15 00:14:20;;;;;;;9.55;2.95;;;1.70;99.90;;;;;;4949324;28;20213;-35
2024/01/15 00:16:46;;;;;;;11.48;2.97;;;1.80;99.90;;;;;;4967159;28;20046;-36
2024/01/15 00:19:12;;;;;;;8.48;2.28;;;1.70;99.90;;;;;;4983236;28;20050;-34
2024/01/15 00:21:38;;;;;;;10.50;2.33;;;1.70;99.90;;;;;;4982539;28;20408;-37
2024/01/15 00:24:04;;;;;;;11.02;2.47;;;1.80;99.90;;;;;;4984095;28;20065;-37
2024/01/15 00:26:30;;;;;;;13.57;2.70;;;1.80;99.90;;;;;;4982953;28;21727;-35
2024/01/15 00:28:55;;;;;;;11.50;2.47;;;1.80;99.90;;;;;;4979720;28;20450;-41
2024/01/15 00:31:21;;;;;;;10.88;2.45;;;1.90;99.90;;;;;;4981050;28;20408;-36
2024/01/15 00:33:47;;;;;;;10.93;2.63;;;1.80;99.90;;;;;;4981446;28;20047;-35
2024/01/15 00:36:14;;;;;;;11.20;3.10;;;1.80;99.90;;;;;;4979948;28;20061;-35
2024/01/15 00:38:40;;;;;;;9.80;3.08;;;1.80;99.90;;;;;;4981575;28;20043;-36
2024/01/15 00:41:05;;;;;;;12.13;2.42;;;1.80;99.90;;;;;;4981949;28;20143;-35
2024/01/15 00:43:31;;;;;;;9.38;2.35;;;1.80;99.90;;;;;;4982755;28;20686;-36
2024/01/15 00:45:57;;;;;;;10.35;3.25;;;1.80;99.90;;;;;;4981837;28;20409;-35
2024/01/15 00:48:22;;;;;;;8.27;2.65;;;1.80;99.90;;;;;;4984450;28;20140;-36
2024/01/15 00:50:48;;;;;;;13.00;2.85;;;1.90;99.90;;;;;;4980706;28;20046;-36
2024/01/15 00:53:14;;;;;;;8.95;3.30;;;1.80;99.90;;;;;;4983847;28;20104;-36
2024/01/15 00:55:39;;;;;;;6.90;3.05;;;1.80;99.90;;;;;;4979864;28;20484;-36
2024/01/15 00:58:05;;;;;;;10.27;2.45;;;1.80;99.90;;;;;;4983841;28;20049;-36
2024/01/15 01:00:31;;;;;;;6.28;2.88;;;1.80;99.90;;;;;;4980012;28;20433;-35
2024/01/15 01:02:56;;;;;;;9.00;2.72;;;1.80;99.90;;;;;;4981989;28;20054;-36
2024/01/15 01:05:22;;;;;;;10.27;3.35;;;1.80;99.90;;;;;;4982367;28;20054;-36
2024/01/15 01:07:48;;;;;;;10.85;3.45;;;1.90;99.90;;;;;;4981592;28;20046;-36
2024/01/15 01:10:13;;;;;;;8.27;3.30;;;1.90;99.90;;;;;;4968185;28;20058;-36
2024/01/15 01:12:39;;;;;;;12.30;3.63;;;1.90;99.90;;;;;;4985771;28;20054;-37
2024/01/15 01:15:05;;;;;;;13.98;4.10;;;1.90;99.90;;;;;;4982879;28;20129;-36
2024/01/15 01:17:31;;;;;;;6.60;3.65;;;1.90;99.90;;;;;;4986366;28;20062;-37
2024/01/15 01:19:57;;;;;;;10.48;3.08;;;1.90;99.90;;;;;;4986766;28;20062;-36
2024/01/15 01:22:22;;;;;;;8.82;3.58;;;1.90;99.90;;;;;;4980135;28;20451;-36
2024/01/15 01:24:48;;;;;;;11.00;3.72;;;2.00;99.90;;;;;;4985915;28;20460;-37
2024/01/15 01:27:14;;;;;;;11.63;3.40;;;2.00;99.90;;;;;;4986937;28;20050;-36
2024/01/15 01:29:39;;;;;;;11.20;4.05;;;2.10;99.90;;;;;;4985505;28;20136;-36
2024/01/15 01:32:05;;;;;;;14.70;3.95;;;2.20;99.90;;;;;;4987011;28;20049;-36
2024/01/15 01:34:33;;;;;;;11.73;4.05;;;2.20;99.90;;;;;;4980980;28;20057;-37
2024/01/15 01:36:58;;;;;;;13.25;3.42;;;2.20;99.90;;;;;;4983837;28;20046;-37
2024/01/15 01:39:24;;;;;;;14.57;3.90;;;2.20;99.90;;;;;;4987453;28;20173;-37
2024/01/15 01:41:50;;;;;;;9.52;2.33;;;2.30;99.90;;;;;;4982321;28;21146;-37
2024/01/15 01:44:15;;;;;;;11.93;3.13;;;2.30;99.90;;;;;;4983137;28;20054;-36
2024/01/15 01:46:41;;;;;;;8.48;1.42;;;2.20;99.90;;;;;;4983893;28;20378;-36
2024/01/15 01:49:09;;;;;;;8.52;2.83;;;2.20;99.90;;;;;;4986120;28;20054;-37
2024/01/15 01:51:36;;;;;;;7.28;1.95;;;2.20;99.90;;;;;;4987581;28;20148;-37
2024/01/15 01:54:02;;;;;;;10.95;1.95;;;2.20;99.90;;;;;;4986693;28;20053;-36
2024/01/15 01:56:28;;;;;;;12.75;2.97;;;2.20;99.90;;;;;;4987826;28;20504;-35
2024/01/15 01:58:54;;;;;;;9.98;2.90;;;2.30;99.90;;;;;;4989922;28;20049;-36
2024/01/15 02:01:19;;;;;;;6.72;2.15;;;2.30;99.90;;;;;;4988864;28;20522;-36
2024/01/15 02:03:45;;;;;;;7.68;1.58;;;2.30;99.90;;;;;;4988067;28;20053;-37
2024/01/15 02:06:11;;;;;;;7.25;1.58;;;2.30;99.90;;;;;;4984296;28;20619;-36
2024/01/15 02:08:37;;;;;;;7.07;1.85;;;2.30;99.90;;;;;;4987536;28;20413;-36
2024/01/15 02:11:03;;;;;;;8.35;0.90;;;2.30;99.90;;;;;;4990250;28;20050;-36
2024/01/15 02:13:29;;;;;;;9.68;1.10;;;2.20;99.90;;;;;;4987018;28;20393;-37
2024/01/15 02:15:55;;;;;;;8.65;1.55;;;2.10;99.90;;;;;;4985788;28;20061;-35
2024/01/15 02:18:20;;;;;;;9.27;2.22;;;2.10;99.90;;;;;;4987920;28;20148;-36
2024/01/15 02:20:46;;;;;;;11.38;4.20;;;2.10;99.90;;;;;;4988268;28;20532;-38
2024/01/15 02:23:14;;;;;;;11.75;1.92;;;2.10;99.90;;;;;;4982518;28;20041;-35
2024/01/15 02:25:41;;;;;;;10.20;1.60;;;2.10;99.90;;;;;;4990400;28;20052;-36
2024/01/15 02:28:09;;;;;;;9.98;2.70;;;2.10;99.90;;;;;;4978265;28;20046;-36
2024/01/15 02:30:40;;;;;;;9.35;3.15;;;2.20;99.90;;;;;;4987036;28;20495;-36
2024/01/15 02:33:07;;;;;;;10.18;3.15;;;2.20;99.90;;;;;;4986792;28;20042;-35
2024/01/15 02:35:33;;;;;;;9.15;2.95;;;2.10;99.90;;;;;;4986003;28;20050;-36
2024/01/15 02:37:59;;;;;;;7.25;3.50;;;2.10;99.90;;;;;;4990385;28;20054;-36
2024/01/15 02:40:25;;;;;;;5.63;0.70;;;2.10;99.90;;;;;;4987746;28;20057;-35
2024/01/15 02:42:50;;;;;;;7.57;1.50;;;2.00;99.90;;;;;;4987392;28;20086;-35
2024/01/15 02:45:17;;;;;;;8.07;3.50;;;1.90;99.90;;;;;;4987642;28;20055;-35
2024/01/15 02:47:43;;;;;;;10.25;2.83;;;1.80;99.90;;;;;;4988593;28;20516;-36
2024/01/15 02:50:08;;;;;;;7.07;2.63;;;1.80;99.90;;;;;;4988532;28;20141;-36
2024/01/15 02:52:34;;;;;;;11.75;3.67;;;1.80;99.90;;;;;;4983909;28;20051;-36
2024/01/15 02:55:00;;;;;;;10.02;4.05;;;1.90;99.90;;;;;;4989811;28;20162;-36
2024/01/15 02:57:26;;;;;;;9.18;2.70;;;1.90;99.90;;;;;;4985391;28;20050;-37
2024/01/15 02:59:51;;;;;;;7.82;3.05;;;1.80;99.90;;;;;;4989296;28;20584;-37
2024/01/15 03:02:17;;;;;;;8.10;3.95;;;1.80;99.90;;;;;;4985680;28;20113;-36
2024/01/15 03:04:44;;;;;;;6.97;2.92;;;1.70;99.90;;;;;;4991224;28;20140;-35
2024/01/15 03:07:10;;;;;;;6.97;3.70;;;1.70;99.90;;;;;;4986383;28;20059;-34
2024/01/15 03:09:35;;;;;;;6.80;3.20;;;1.60;99.90;;;;;;4990057;28;20141;-36
2024/01/15 03:12:01;;;;;;;6.55;3.58;;;1.50;99.90;;;;;;4988856;28;20046;-37
2024/01/15 03:14:27;;;;;;;5.32;3.38;;;1.50;99.90;;;;;;4985461;28;20458;-36
2024/01/15 03:16:53;;;;;;;11.13;4.80;;;1.60;99.90;;;;;;4987075;28;20046;-37
2024/01/15 03:19:19;;;;;;;7.55;3.58;;;1.60;99.90;;;;;;4990710;28;20108;-36
2024/01/15 03:21:45;;;;;;;9.57;3.53;;;1.60;99.90;;;;;;4986407;28;20058;-36
2024/01/15 03:24:11;;;;;;;7.55;2.40;;;1.60;99.90;;;;;;4986607;28;20052;-36
2024/01/15 03:26:36;;;;;;;11.45;3.38;;;1.60;99.90;;;;;;4984490;28;20449;-36
2024/01/15 03:29:02;;;;;;;11.27;2.35;;;1.70;99.90;;;;;;4983879;28;20077;-36
2024/01/15 03:31:28;;;;;;;12.55;2.05;;;1.70;99.90;;;;;;4987109;28;20065;-45
2024/01/15 03:33:53;;;;;;;10.80;1.40;;;1.90;99.90;;;;;;4982716;28;20046;-36
2024/01/15 03:36:19;;;;;;;8.77;1.77;;;1.90;99.90;;;;;;4968735;28;20054;-35
2024/01/15 03:38:45;;;;;;;10.27;1.50;;;2.00;99.90;;;;;;4985078;28;20458;-35
2024/01/15 03:41:10;;;;;;;6.78;1.10;;;2.00;99.90;;;;;;4969052;28;20054;-35
2024/01/15 03:43:36;;;;;;;7.47;1.38;;;1.90;99.90;;;;;;4984560;28;20473;-36
2024/01/15 03:46:02;;;;;;;9.57;1.40;;;1.80;99.90;;;;;;4983512;28;20098;-36
2024/01/15 03:48:28;;;;;;;8.38;1.42;;;1.70;99.90;;;;;;4989867;28;20054;-37
2024/01/15 03:50:54;;;;;;;10.45;1.40;;;1.70;99.90;;;;;;4987255;28;20552;-36
2024/01/15 03:53:20;;;;;;;9.18;1.63;;;1.70;99.90;;;;;;4969683;28;20046;-36
2024/01/15 03:55:45;;;;;;;11.10;1.90;;;1.60;99.90;;;;;;4984956;28;20050;-34
2024/01/15 03:58:11;;;;;;;8.00;1.20;;;1.60;99.90;;;;;;4984649;28;20046;-34
2024/01/15 04:00:37;;;;;;;9.18;2.38;;;1.60;99.90;;;;;;4984109;28;20149;-35
2024/01/15 04:03:02;;;;;;;10.10;1.33;;;1.50;99.90;;;;;;4984950;28;20058;-36
2024/01/15 04:05:28;;;;;;;6.18;0.82;;;1.50;99.90;;;;;;4982887;28;20051;-36
2024/01/15 04:07:54;;;;;;;6.28;0.93;;;1.50;99.90;;;;;;4983251;28;20062;-36
2024/01/15 04:10:19;;;;;;;8.20;0.90;;;1.40;99.90;;;;;;4986282;28;20419;-36
2024/01/15 04:12:46;;;;;;;5.53;0.75;;;1.50;99.90;;;;;;4985160;28;20062;-36
2024/01/15 04:15:12;;;;;;;7.10;1.15;;;1.50;99.90;;;;;;4981545;28;20046;-32
2024/01/15 04:17:38;;;;;;;8.00;1.55;;;1.60;99.90;;;;;;4987095;28;20058;-36
2024/01/15 04:20:04;;;;;;;4.38;1.23;;;1.50;99.90;;;;;;4984732;28;20054;-37
2024/01/15 04:22:30;;;;;;;6.53;1.05;;;1.50;99.90;;;;;;4966801;28;20061;-36
2024/01/15 04:24:56;;;;;;;3.72;0.77;;;1.50;99.90;;;;;;4980800;28;20055;-36
2024/01/15 04:27:21;;;;;;;3.80;0.80;;;1.40;99.90;;;;;;4980377;28;20501;-35
2024/01/15 04:29:47;;;;;;;2.83;0.50;;;1.40;99.90;;;;;;4984567;28;20452;-36
2024/01/15 04:32:13;;;;;;;6.82;0.85;;;1.30;99.90;;;;;;4987733;28;20050;-35
2024/01/15 04:34:39;;;;;;;3.58;0.90;;;1.20;99.90;;;;;;4984750;28;20050;-35
2024/01/15 04:37:04;;;;;;;6.43;1.02;;;1.20;99.90;;;;;;4984766;28;20046;-37
2024/01/15 04:39:30;;;;;;;6.57;1.02;;;1.20;99.90;;;;;;4985314;28;20078;-35
2024/01/15 04:41:56;;;;;;;5.72;1.20;;;1.10;99.90;;;;;;4986966;28;20170;-35
2024/01/15 04:44:22;;;;;;;5.85;0.68;;;1.10;99.90;;;;;;4988731;28;20054;-37
2024/01/15 04:46:48;;;;;;;5.05;0.60;;;1.10;99.90;;;;;;4990325;28;20141;-36
2024/01/15 04:49:13;;;;;;;9.75;1.25;;;1.30;99.90;;;;;;4969205;28;20054;-36
2024/01/15 04:51:39;;;;;;;6.28;0.75;;;1.30;99.90;;;;;;4987879;28;20074;-36
2024/01/15 04:54:05;;;;;;;7.38;1.10;;;1.30;99.90;;;;;;4974118;28;20050;-35
2024/01/15 04:56:30;;;;;;;11.90;1.23;;;1.30;99.90;;;;;;4993395;28;20062;-37
2024/01/15 04:58:56;;;;;;;7.95;1.25;;;1.20;99.90;;;;;;4988178;28;20411;-35
2024/01/15 05:01:22;;;;;;;8.07;1.00;;;1.20;99.90;;;;;;4972986;28;20141;-35
2024/01/15 05:03:47;;;;;;;9.13;1.27;;;1.10;99.90;;;;;;4991451;28;20056;-35
2024/01/15 05:06:13;;;;;;;10.77;1.40;;;1.10;99.90;;;;;;4989100;28;20478;-36
2024/01/15 05:08:39;;;;;;;9.13;1.45;;;1.10;99.90;;;;;;4988975;28;20065;-36
2024/01/15 05:11:04;;;;;;;6.25;0.93;;;1.10;99.90;;;;;;4988037;28;20052;-35
2024/01/15 05:13:30;;;;;;;11.23;0.88;;;1.10;99.90;;;;;;4978743;28;20467;-36
2024/01/15 05:15:56;;;;;;;7.43;1.25;;;1.10;99.90;;;;;;4989527;28;20108;-36
2024/01/15 05:18:21;;;;;;;9.95;1.30;;;1.10;99.90;;;;;;4989400;28;20042;-36
2024/01/15 05:20:47;;;;;;;6.07;0.75;;;1.10;99.90;;;;;;4969037;28;20145;-36
2024/01/15 05:23:13;;;;;;;8.70;0.98;;;1.00;99.90;;;;;;4985969;28;20061;-36
2024/01/15 05:25:38;;;;;;;7.28;1.10;;;1.10;99.90;;;;;;4988060;28;20054;-36
2024/01/15 05:28:05;;;;;;;9.52;1.35;;;1.10;99.90;;;;;;4984755;28;20138;-36
2024/01/15 05:30:31;;;;;;;5.25;0.68;;;1.00;99.90;;;;;;4989319;28;20050;-36
2024/01/15 05:32:57;;;;;;;11.40;0.82;;;1.10;99.90;;;;;;4986932;28;20046;-36
2024/01/15 05:35:23;;;;;;;11.15;1.17;;;1.10;99.90;;;;;;4990408;28;20141;-36
2024/01/15 05:37:49;;;;;;;6.80;1.00;;;1.10;99.90;;;;;;4989160;28;20164;-35
2024/01/15 05:40:14;;;;;;;3.80;0.70;;;1.10;99.90;;;;;;4985032;28;20389;-34
2024/01/15 05:42:41;;;;;;;6.45;0.82;;;1.00;99.90;;;;;;4991763;28;20064;-36
2024/01/15 05:45:07;;;;;;;3.70;0.60;;;1.10;99.90;;;;;;4988839;28;20068;-36
2024/01/15 05:47:33;;;;;;;4.55;0.45;;;1.00;99.90;;;;;;4987477;28;20176;-36
2024/01/15 05:50:00;;;;;;;6.00;0.52;;;1.00;99.90;;;;;;4987043;28;20055;-38
2024/01/15 05:52:26;;;;;;;3.42;0.50;;;0.90;99.90;;;;;;4990991;28;20150;-36
2024/01/15 05:54:51;;;;;;;4.55;0.55;;;0.80;99.90;;;;;;4981543;28;20054;-36
2024/01/15 05:57:17;;;;;;;5.45;0.80;;;0.80;99.90;;;;;;4985868;28;20423;-36
2024/01/15 05:59:44;;;;;;;6.95;0.90;;;0.70;99.90;;;;;;4991031;28;20483;-36
2024/01/15 06:02:10;;;;;;;3.85;0.77;;;0.80;99.90;;;;;;4987869;28;20057;-35
2024/01/15 06:04:36;;;;;;;4.05;0.70;;;0.70;99.90;;;;;;4988562;28;20046;-36
2024/01/15 06:07:02;;;;;;;5.45;0.82;;;0.70;99.90;;;;;;4986344;28;20051;-35
2024/01/15 06:09:28;;;;;;;4.20;1.10;;;0.60;99.90;;;;;;4969936;28;20416;-36
2024/01/15 06:11:55;;;;;;;9.45;1.30;;;0.60;99.90;;;;;;4985995;28;20078;-36
2024/01/15 06:14:20;;;;;;;8.77;1.75;;;0.60;99.90;;;;;;4987769;28;21641;-36
2024/01/15 06:16:46;;;;;;;8.90;1.40;;;0.60;99.90;;;;;;4988191;28;20050;-36
2024/01/15 06:19:12;;;;;;;5.82;1.50;;;0.60;99.90;;;;;;4986243;28;20085;-36
2024/01/15 06:21:37;;;;;;;8.75;1.40;;;0.60;99.90;;;;;;4985663;28;20042;-35
2024/01/15 06:24:03;;;;;;;8.75;1.80;;;0.60;99.90;;;;;;4987939;28;20054;-34
2024/01/15 06:26:29;;;;;;;7.68;1.65;;;0.60;99.90;;;;;;4985157;28;20051;-36
2024/01/15 06:28:55;;;;;;;6.88;1.80;;;0.70;99.90;;;;;;4985565;28;20046;-36
2024/01/15 06:31:23;;;;;;;13.75;2.05;;;0.70;99.90;;;;;;4983437;28;20050;-36
2024/01/15 06:33:49;;;;;;;5.53;1.13;;;0.70;99.90;;;;;;4985787;28;20050;-35
2024/01/15 06:36:16;;;;;;;6.13;0.93;;;0.70;99.90;;;;;;4987637;28;20091;-37
2024/01/15 06:38:44;;;;;;;9.05;1.27;;;0.80;99.90;;;;;;4987707;28;20053;-36
2024/01/15 06:41:09;;;;;;;8.85;1.35;;;0.90;99.90;;;;;;4984026;28;20492;-35
2024/01/15 06:43:35;;;;;;;6.15;1.30;;;0.90;99.90;;;;;;4985607;28;20043;-36
2024/01/15 06:46:01;;;;;;;5.80;1.35;;;0.90;99.90;;;;;;4969119;28;20795;-35
2024/01/15 06:48:26;;;;;;;5.15;1.27;;;0.80;99.90;;;;;;4987825;28;20058;-37
2024/01/15 06:50:52;;;;;;;4.20;1.10;;;0.90;99.90;;;;;;4988472;28;20073;-36
2024/01/15 06:53:18;;;;;;;8.23;1.40;;;0.90;99.90;;;;;;4989454;28;20491;-36
2024/01/15 06:55:44;;;;;;;5.18;1.15;;;0.80;99.90;;;;;;4988291;28;20058;-35
2024/01/15 06:58:09;;;;;;;7.85;1.48;;;0.90;99.90;;;;;;4986071;28;20112;-34
2024/01/15 07:00:35;;;;;;;6.63;1.27;;;0.80;99.90;;;;;;4982957;28;20065;-36
2024/01/15 07:03:01;;;;;;;6.50;1.15;;;0.80;99.90;;;;;;4979080;28;20524;-35
2024/01/15 07:05:27;;;;;;;4.32;0.95;;;0.80;99.90;;;;;;4984829;28;20060;-37
2024/01/15 07:07:52;;;;;;;6.38;1.58;;;0.80;99.90;;;;;;4981826;28;20050;-36
2024/01/15 07:10:18;;;;;;;7.97;1.60;;;0.90;99.90;;;;;;4973495;28;20042;-36
2024/01/15 07:12:44;;;;;;;6.15;1.23;;;0.90;99.90;;;;;;4982610;28;20062;-37
2024/01/15 07:15:10;;;;;;;6.38;1.50;;;0.90;99.90;;;;;;4981180;28;20062;-36
2024/01/15 07:17:39;;;;;;;6.97;1.33;;;0.80;99.90;;;;;;4980205;28;20054;-36
2024/01/15 07:20:07;;;;;;;7.47;1.90;;;0.80;99.90;;;;;;4981578;28;20054;-36
2024/01/15 07:22:34;;;;;;;8.75;1.23;;;0.90;99.90;;;;;;4983478;28;20046;-35
2024/01/15 07:24:59;;;;;;;6.15;1.33;;;0.90;99.90;;;;;;4980267;28;20512;-35
2024/01/15 07:27:25;;;;;;;6.55;0.90;;;1.00;99.90;;;;;;4981282;28;20137;-36
2024/01/15 07:29:52;;;;;;;7.43;0.95;;;1.00;99.90;;;;;;4985433;28;20141;-36
2024/01/15 07:32:17;;;;;;;5.85;1.10;;;1.00;99.90;;;;;;4966107;28;20077;-36
2024/01/15 07:34:43;;;;;;;8.75;1.20;;;1.10;99.90;;;;;;4984521;28;20097;-37
2024/01/15 07:37:09;;;;;;;8.40;1.08;;;1.00;99.90;;;;;;4983499;28;20066;-36
2024/01/15 07:39:35;;;;;;;9.38;1.05;;;1.10;99.90;;;;;;4963499;28;20560;-37
2024/01/15 07:42:01;;;;;;;7.70;1.52;;;1.00;99.90;;;;;;4978269;28;20046;-37
2024/01/15 07:44:27;;;;;;;12.45;1.42;;;1.10;99.90;;;;;;4981584;28;20130;-36
2024/01/15 07:46:53;;;;;;;7.93;1.10;;;1.00;99.90;;;;;;4983939;28;20133;-36
2024/01/15 07:49:18;;;;;;;8.95;1.60;;;1.00;99.90;;;;;;4981593;28;20050;-35
2024/01/15 07:51:44;;;;;;;5.88;1.20;;;1.00;99.90;;;;;;4981969;28;20101;-36
2024/01/15 07:54:11;;;;;;;11.65;1.67;;;1.00;99.90;;;;;;4977984;28;20471;-36
2024/01/15 07:57:03;;;;;;;7.65;1.50;;;1.00;99.90;;;;;;4978837;28;20620;-35
2024/01/15 07:59:29;;;;;;;7.50;1.67;;;0.90;99.90;;;;;;4962475;28;20093;-36
2024/01/15 08:01:54;;;;;;;7.22;1.45;;;0.90;99.90;;;;;;4966176;28;20050;-37
2024/01/15 08:04:21;;;;;;;6.55;1.00;;;0.90;99.90;;;;;;4952582;28;20493;-35
2024/01/15 08:06:47;;;;;;;7.05;1.27;;;1.00;99.90;;;;;;4965207;28;20046;-36
2024/01/15 08:09:13;;;;;;;9.85;1.38;;;1.00;99.90;;;;;;4980995;28;20413;-36
2024/01/15 08:11:43;;;;;;;10.63;1.20;;;1.00;99.90;;;;;;4964762;28;20046;-37
2024/01/15 08:14:09;;;;;;;4.80;1.23;;;1.10;99.90;;;;;;4980710;28;20050;-36
2024/01/15 08:16:36;;;;;;;5.53;1.20;;;1.10;99.90;;;;;;4981604;28;20054;-35
2024/01/15 08:19:02;;;;;;;6.45;1.10;;;1.20;99.90;;;;;;4979540;28;20066;-34
2024/01/15 08:21:31;;;;;;;8.07;0.90;;;1.20;99.90;;;;;;4983279;28;20043;-35
2024/01/15 08:23:58;;;;;;;9.48;1.20;;;1.20;99.90;;;;;;4979675;28;20061;-37
2024/01/15 08:26:24;;;;;;;10.93;1.58;;;1.20;99.90;;;;;;4984128;28;20039;-34
2024/01/15 08:28:50;;;;;;;7.57;0.93;;;1.30;99.90;;;;;;4967033;28;20050;-36
2024/01/15 08:31:16;;;;;;;7.50;0.82;;;1.30;99.90;;;;;;4981582;28;20084;-39
2024/01/15 08:33:42;;;;;;;7.18;1.10;;;1.30;99.90;;;;;;4984326;28;20043;-36
2024/01/15 08:36:09;;;;;;;6.35;0.90;;;1.20;99.90;;;;;;4982246;28;20061;-36
2024/01/15 08:38:35;;;;;;;8.68;1.35;;;1.20;99.90;;;;;;4990152;28;20073;-36
2024/01/15 08:41:01;;;;;;;8.82;1.17;;;1.30;99.90;;;;;;4988280;28;20054;-36
2024/01/15 08:43:27;;;;;;;7.03;0.95;;;1.30;99.90;;;;;;4967438;28;20050;-36
2024/01/15 08:45:53;;;;;;;10.02;1.63;;;1.30;99.90;;;;;;4984224;28;20134;-36
2024/01/15 08:48:21;;;;;;;10.65;1.38;;;1.30;99.90;;;;;;4986626;28;20042;-36
2024/01/15 08:50:47;;;;;;;6.65;1.00;;;1.30;99.90;;;;;;4992256;28;20053;-37
2024/01/15 08:53:13;;;;;;;10.52;1.52;;;1.30;99.90;;;;;;4991964;28;20092;-34
2024/01/15 08:55:39;;;;;;;9.02;1.00;;;1.30;99.90;;;;;;4987406;28;20050;-33
2024/01/15 08:58:06;;;;;;;7.50;1.13;;;1.30;99.90;;;;;;4985702;28;20120;-36
2024/01/15 09:00:32;;;;;;;4.47;0.63;;;1.30;99.90;;;;;;4983622;28;20065;-35
2024/01/15 09:02:57;;;;;;;7.30;0.70;;;1.30;99.90;;;;;;4986911;28;20057;-36
2024/01/15 09:05:23;;;;;;;8.95;1.35;;;1.30;99.90;;;;;;4956442;28;20046;-34
2024/01/15 09:07:51;;;;;;;7.28;1.77;;;1.30;99.90;;;;;;4985773;28;20047;-36
2024/01/15 09:10:17;;;;;;;8.32;1.92;;;1.30;99.90;;;;;;4984461;28;20531;-35
2024/01/15 09:12:42;;;;;;;13.35;3.25;;;1.50;99.90;;;;;;4984149;28;20058;-36
2024/01/15 09:15:08;;;;;;;6.13;1.38;;;1.50;99.90;;;;;;4987741;28;20427;-36
2024/01/15 09:17:34;;;;;;;4.35;0.60;;;1.60;99.90;;;;;;4993694;28;20443;-36
2024/01/15 09:20:00;;;;;;;8.10;0.82;;;1.60;99.90;;;;;;4964751;28;20054;-35
2024/01/15 09:22:26;;;;;;;7.50;0.85;;;1.50;99.90;;;;;;4969592;28;20082;-35
2024/01/15 09:24:52;;;;;;;7.07;0.90;;;1.60;99.90;;;;;;4978691;28;20054;-35
2024/01/15 09:27:18;;;;;;;4.80;0.70;;;1.60;99.90;;;;;;4984778;28;20056;-36
2024/01/15 09:29:45;;;;;;;7.47;0.70;;;1.60;99.90;;;;;;4986544;28;20042;-35
2024/01/15 09:32:12;;;;;;;4.22;0.38;;;1.70;99.90;;;;;;4988362;28;20064;-35
2024/01/15 09:34:38;;;;;;;4.80;0.60;;;1.70;99.90;;;;;;4986791;28;20050;-36
2024/01/15 09:37:04;;;;;;;5.15;0.80;;;1.70;99.90;;;;;;4983618;28;20057;-35
2024/01/15 09:39:31;;;;;;;4.38;0.60;;;1.70;99.90;;;;;;4987626;28;20096;-36
2024/01/15 09:41:57;;;;;;;2.35;0.70;;;1.70;99.90;;;;;;4983346;28;20500;-36
2024/01/15 09:44:23;;;;;;;1.85;0.57;;;1.70;99.90;;;;;;4981774;28;20055;-35
2024/01/15 09:46:50;;;;;;;1.73;0.52;;;1.80;99.90;;;;;;4984240;28;20507;-35
2024/01/15 09:49:17;;;;;;;2.75;0.47;;;1.70;99.90;;;;;;4989440;28;20137;-38
2024/01/15 09:51:43;;;;;;;2.85;0.50;;;1.60;99.90;;;;;;4987125;28;20042;-36
2024/01/15 09:54:09;;;;;;;1.65;0.40;;;1.50;99.90;;;;;;4978771;28;20416;-36
2024/01/15 09:56:36;;;;;;;1.55;0.50;;;1.40;99.90;;;;;;4979838;28;20062;-38
2024/01/15 09:59:04;;;;;;;2.45;0.60;;;1.40;99.90;;;;;;4982935;28;20553;-37
2024/01/15 10:01:31;;;;;;;4.60;0.75;;;1.40;99.90;;;;;;4983603;28;20046;-35
2024/01/15 10:03:58;;;;;;;1.88;0.40;;;1.40;99.90;;;;;;4987384;28;20054;-34
2024/01/15 10:06:29;;;;;;;7.45;0.82;;;1.40;99.90;;;;;;4984529;28;20037;-36
2024/01/15 10:08:58;;;;;;;2.40;0.50;;;1.40;99.90;;;;;;4984670;28;20050;-33
2024/01/15 10:11:24;;;;;;;3.85;0.52;;;1.40;99.90;;;;;;4979850;28;20042;-35
2024/01/15 10:13:53;;;;;;;3.00;0.55;;;1.40;99.90;;;;;;4982861;28;20055;-37
2024/01/15 10:16:19;;;;;;;3.67;0.60;;;1.40;99.90;;;;;;4986400;28;20050;-36
2024/01/15 10:18:45;;;;;;;4.43;0.60;;;1.60;99.90;;;;;;4986524;28;20059;-34
2024/01/15 10:21:11;;;;;;;5.80;0.75;;;1.80;99.90;;;;;;4983885;28;20118;-34
2024/01/15 10:23:36;;;;;;;6.03;0.63;;;1.80;99.90;;;;;;4984661;28;20034;-36
2024/01/15 10:26:03;;;;;;;4.90;0.68;;;1.90;99.90;;;;;;4990470;28;20046;-36
2024/01/15 10:28:30;;;;;;;4.75;0.50;;;2.00;99.90;;;;;;4983130;28;20137;-35
2024/01/15 10:30:58;;;;;;;2.90;0.50;;;2.20;99.90;;;;;;4984903;28;20054;-35
2024/01/15 10:33:25;;;;;;;6.88;1.10;;;2.30;99.90;;;;;;4984726;28;20050;-35
2024/01/15 10:35:59;;;;;;;5.38;0.60;;;2.20;99.90;;;;;;4986565;28;20046;-36
2024/01/15 10:38:25;;;;;;;4.00;0.47;;;2.20;99.90;;;;;;4984560;28;20053;-36
2024/01/15 10:40:55;;;;;;;6.95;0.88;;;2.20;99.90;;;;;;4983778;28;20050;-35
2024/01/15 10:43:21;;;;;;;7.78;0.70;;;2.20;99.90;;;;;;4967304;28;20069;-35
2024/01/15 10:45:48;;;;;;;8.10;0.98;;;2.20;99.90;;;;;;4981193;28;20050;-36
2024/01/15 10:48:17;;;;;;;5.20;0.75;;;2.20;99.90;;;;;;4982232;28;20137;-35
2024/01/15 10:50:44;;;;;;;6.00;0.80;;;2.20;99.90;;;;;;4981566;28;20058;-35
2024/01/15 10:53:12;;;;;;;5.65;0.80;;;2.20;99.90;;;;;;4988243;28;20085;-34
2024/01/15 10:55:39;;;;;;;3.35;0.60;;;2.20;99.90;;;;;;4985172;28;20054;-35
2024/01/15 10:58:07;;;;;;;3.15;0.50;;;2.30;99.90;;;;;;4982495;28;20415;-35
2024/01/15 11:00:37;;;;;;;3.38;0.40;;;2.30;99.90;;;;;;4981307;28;20546;-34
2024/01/15 11:03:07;;;;;;;2.10;0.40;;;2.20;99.90;;;;;;4981302;28;20054;-36
2024/01/15 11:05:39;;;;;;;1.60;0.25;;;2.00;99.90;;;;;;4980952;28;20050;-36
2024/01/15 11:08:08;;;;;;;4.00;0.45;;;1.80;99.90;;;;;;4978475;28;20050;-35
2024/01/15 11:10:49;;;;;;;2.58;0.68;;;1.70;99.90;;;;;;4979790;28;20069;-36
2024/01/15 11:13:20;;;;;;;1.30;0.70;;;1.50;99.90;;;;;;4983171;28;20053;-37
2024/01/15 11:16:15;;;;;;;1.08;0.70;;;1.40;99.90;;;;;;4981614;28;20058;-37
2024/01/15 11:19:00;;;;;;;2.05;1.23;;;1.40;99.90;;;;;;4961843;28;20404;-38
2024/01/15 11:21:29;;;;;;;2.85;1.83;;;1.30;99.90;;;;;;4978164;28;20050;-35
2024/01/15 11:24:00;;;;;;;1.60;1.05;;;1.30;99.90;;;;;;4983742;28;20078;-35
2024/01/15 11:26:41;;;;;;;5.45;1.25;;;1.20;99.90;;;;;;4980609;28;20085;-35
2024/01/15 11:29:09;;;;;;;1.88;1.15;;;1.20;99.90;;;;;;4982770;28;20046;-35
2024/01/15 11:31:40;;;;;;;1.33;0.98;;;1.20;99.90;;;;;;4986559;28;20058;-36
2024/01/15 11:34:07;;;;;;;1.43;1.03;;;1.30;99.90;;;;;;4983493;28;20504;-34
2024/01/15 11:36:45;;;;;;;2.17;0.80;;;1.30;99.90;;;;;;4986456;28;20054;-37
2024/01/15 11:39:42;;;;;;;3.80;0.68;;;1.40;99.90;;;;;;4980095;28;20536;-36
2024/01/15 11:42:09;;;;;;;4.63;0.95;;;1.30;99.90;;;;;;4982965;28;20057;-36
2024/01/15 11:44:35;;;;;;;3.80;0.82;;;1.40;99.90;;;;;;4977860;28;20130;-36
2024/01/15 11:47:05;;;;;;;6.63;0.60;;;1.40;99.90;;;;;;4984120;28;20580;-36
2024/01/15 11:49:39;;;;;;;10.63;1.35;;;1.50;99.90;;;;;;4981405;28;20060;-36
2024/01/15 11:52:06;;;;;;;5.82;1.45;;;1.70;99.90;;;;;;4981474;28;20064;-35
2024/01/15 11:54:34;;;;;;;8.55;1.00;;;2.20;99.90;;;;;;4977816;28;20145;-36
2024/01/15 11:57:07;;;;;;;8.57;0.75;;;2.60;99.90;;;;;;4979635;28;20523;-35
2024/01/15 11:59:33;;;;;;;6.50;0.88;;;2.60;99.90;;;;;;4985910;28;20134;-35
2024/01/15 12:01:58;;;;;;;7.18;1.00;;;2.70;99.90;;;;;;4972355;28;20141;-35
2024/01/15 12:04:24;;;;;;;8.32;1.35;;;3.00;99.90;;;;;;4972899;28;20050;-35
2024/01/15 12:06:50;;;;;;;7.93;1.20;;;3.20;99.90;;;;;;4980679;28;20062;-35
2024/01/15 12:09:19;;;;;;;7.22;1.10;;;3.40;99.90;;;;;;4978489;28;20061;-35
2024/01/15 12:11:54;;;;;;;5.60;0.90;;;3.70;99.90;;;;;;4967364;28;20550;-37
2024/01/15 12:14:22;;;;;;;7.88;0.85;;;4.10;99.90;;;;;;4983351;28;20070;-36
2024/01/15 12:16:47;;;;;;;6.20;0.82;;;4.50;99.90;;;;;;4979563;28;20134;-34
2024/01/15 12:19:15;;;;;;;7.07;0.80;;;4.80;99.90;;;;;;4981669;28;20486;-36
2024/01/15 12:21:41;;;;;;;7.13;0.85;;;4.90;99.90;;;;;;4984055;28;20061;-36
2024/01/15 12:24:10;;;;;;;5.78;0.57;;;4.80;99.90;;;;;;4985286;28;20482;-35
2024/01/15 12:26:36;;;;;;;3.58;0.50;;;4.40;99.90;;;;;;4988263;28;20084;-36
2024/01/15 12:29:02;;;;;;;2.88;0.50;;;4.00;99.90;;;;;;4982103;28;20062;-35
2024/01/15 12:31:29;;;;;;;6.40;0.70;;;3.50;99.90;;;;;;4984685;28;20472;-36
2024/01/15 12:33:56;;;;;;;4.13;0.98;;;3.20;99.90;;;;;;4983984;28;20050;-35
2024/01/15 12:36:22;;;;;;;6.00;0.82;;;3.00;99.90;;;;;;4956421;28;20090;-36
2024/01/15 12:38:47;;;;;;;4.10;0.80;;;2.80;99.90;;;;;;4957489;28;20543;-37
2024/01/15 12:41:14;;;;;;;6.80;0.85;;;2.70;99.90;;;;;;4960600;28;20051;-35
2024/01/15 12:43:40;;;;;;;4.95;0.88;;;2.60;99.90;;;;;;4957899;28;20059;-35
2024/01/15 12:46:06;;;;;;;6.25;0.50;;;2.50;99.90;;;;;;4959542;28;20401;-36
2024/01/15 12:48:32;;;;;;;3.22;0.50;;;2.50;99.90;;;;;;4956014;28;20059;-37
2024/01/15 12:50:57;;;;;;;3.78;0.70;;;2.40;99.90;;;;;;4962681;28;20047;-35
2024/01/15 12:53:23;;;;;;;5.25;0.80;;;2.30;99.90;;;;;;4962919;28;20058;-35